sensor_id;sensor_type;location;lat;lon;timestamp;P1;durP1;ratioP1;P2;durP2;ratioP2
15667;SDS011;7934;48.710;9.024;2024-01-06T00:02:05;8.40;;;5.80;;
15667;SDS011;7934;48.710;9.024;2024-01-06T00:04:32;6.93;;;5.90;;
15667;SDS011;7934;48.710;9.024;2024-01-06T00:07:00;7.30;;;5.37;;
15667;SDS011;7934;48.710;9.024;2024-01-06T00:09:27;7.70;;;5.30;;
15667;SDS011;7934;48.710;9.024;2024-01-06T00:11:54;7.67;;;5.37;;
15667;SDS011;7934;48.710;9.024;2024-01-06T00:14:23;8.17;;;5.57;;
15667;SDS011;7934;48.710;9.024;2024-01-06T00:16:50;10.00;;;5.40;;
15667;SDS011;7934;48.710;9.024;2024-01-06T00:19:18;7.30;;;6.60;;
15667;SDS011;7934;48.710;9.024;2024-01-06T00:21:46;6.00;;;5.17;;
15667;SDS011;7934;48.710;9.024;2024-01-06T00:24:14;7.97;;;4.87;;
15667;SDS011;7934;48.710;9.024;2024-01-06T00:26:41;9.53;;;5.10;;
15667;SDS011;7934;48.710;9.024;2024-01-06T00:29:08;10.53;;;5.90;;
15667;SDS011;7934;48.710;9.024;2024-01-06T00:31:37;10.37;;;6.73;;
15667;SDS011;7934;48.710;9.024;2024-01-06T00:34:04;17.20;;;6.20;;
15667;SDS011;7934;48.710;9.024;2024-01-06T00:36:33;9.73;;;6.83;;
15667;SDS011;7934;48.710;9.024;2024-01-06T00:39:00;15.13;;;7.77;;
15667;SDS011;7934;48.710;9.024;2024-01-06T00:41:28;11.63;;;7.83;;
15667;SDS011;7934;48.710;9.024;2024-01-06T00:43:56;10.47;;;6.73;;
15667;SDS011;7934;48.710;9.024;2024-01-06T00:46:23;12.57;;;6.60;;
15667;SDS011;7934;48.710;9.024;2024-01-06T00:48:51;7.63;;;5.77;;
15667;SDS011;7934;48.710;9.024;2024-01-06T00:51:18;7.33;;;5.63;;
15667;SDS011;7934;48.710;9.024;2024-01-06T00:53:46;9.40;;;5.67;;
15667;SDS011;7934;48.710;9.024;2024-01-06T00:56:13;6.93;;;6.20;;
15667;SDS011;7934;48.710;9.024;2024-01-06T00:58:40;9.97;;;5.40;;
15667;SDS011;7934;48.710;9.024;2024-01-06T01:01:07;9.37;;;4.77;;
15667;SDS011;7934;48.710;9.024;2024-01-06T01:03:34;13.13;;;4.80;;
15667;SDS011;7934;48.710;9.024;2024-01-06T01:06:03;8.67;;;5.17;;
15667;SDS011;7934;48.710;9.024;2024-01-06T01:08:30;9.63;;;5.00;;
15667;SDS011;7934;48.710;9.024;2024-01-06T01:10:57;8.37;;;4.50;;
15667;SDS011;7934;48.710;9.024;2024-01-06T01:13:25;9.87;;;5.00;;
15667;SDS011;7934;48.710;9.024;2024-01-06T01:15:52;7.00;;;4.47;;
15667;SDS011;7934;48.710;9.024;2024-01-06T01:18:19;6.43;;;4.47;;
15667;SDS011;7934;48.710;9.024;2024-01-06T01:20:45;7.23;;;5.20;;
15667;SDS011;7934;48.710;9.024;2024-01-06T01:23:14;6.50;;;4.37;;
15667;SDS011;7934;48.710;9.024;2024-01-06T01:25:41;7.97;;;4.40;;
15667;SDS011;7934;48.710;9.024;2024-01-06T01:28:08;5.60;;;4.17;;
15667;SDS011;7934;48.710;9.024;2024-01-06T01:30:35;4.63;;;4.00;;
15667;SDS011;7934;48.710;9.024;2024-01-06T01:33:03;6.63;;;4.00;;
15667;SDS011;7934;48.710;9.024;2024-01-06T01:35:30;8.00;;;5.23;;
15667;SDS011;7934;48.710;9.024;2024-01-06T01:37:57;8.93;;;4.53;;
15667;SDS011;7934;48.710;9.024;2024-01-06T01:40:26;9.27;;;4.70;;
15667;SDS011;7934;48.710;9.024;2024-01-06T01:42:53;13.10;;;4.73;;
15667;SDS011;7934;48.710;9.024;2024-01-06T01:45:20;8.47;;;4.53;;
15667;SDS011;7934;48.710;9.024;2024-01-06T01:47:47;15.80;;;5.20;;
15667;SDS011;7934;48.710;9.024;2024-01-06T01:50:14;6.20;;;4.67;;
15667;SDS011;7934;48.710;9.024;2024-01-06T01:52:41;8.73;;;4.83;;
15667;SDS011;7934;48.710;9.024;2024-01-06T01:55:09;13.07;;;5.00;;
15667;SDS011;7934;48.710;9.024;2024-01-06T01:57:38;6.90;;;4.00;;
15667;SDS011;7934;48.710;9.024;2024-01-06T02:00:05;7.30;;;3.97;;
15667;SDS011;7934;48.710;9.024;2024-01-06T02:02:33;4.03;;;3.63;;
15667;SDS011;7934;48.710;9.024;2024-01-06T02:05:00;4.50;;;4.03;;
15667;SDS011;7934;48.710;9.024;2024-01-06T02:07:27;9.30;;;3.63;;
15667;SDS011;7934;48.710;9.024;2024-01-06T02:09:54;4.10;;;3.70;;
15667;SDS011;7934;48.710;9.024;2024-01-06T02:12:21;6.67;;;4.03;;
15667;SDS011;7934;48.710;9.024;2024-01-06T02:14:50;10.73;;;3.90;;
15667;SDS011;7934;48.710;9.024;2024-01-06T02:17:18;7.50;;;4.37;;
15667;SDS011;7934;48.710;9.024;2024-01-06T02:19:46;6.93;;;3.67;;
15667;SDS011;7934;48.710;9.024;2024-01-06T02:22:15;7.40;;;3.73;;
15667;SDS011;7934;48.710;9.024;2024-01-06T02:24:42;7.73;;;3.83;;
15667;SDS011;7934;48.710;9.024;2024-01-06T02:27:09;6.50;;;4.00;;
15667;SDS011;7934;48.710;9.024;2024-01-06T02:29:36;11.23;;;4.07;;
15667;SDS011;7934;48.710;9.024;2024-01-06T02:32:03;13.13;;;4.57;;
15667;SDS011;7934;48.710;9.024;2024-01-06T02:34:31;6.97;;;3.50;;
15667;SDS011;7934;48.710;9.024;2024-01-06T02:36:59;7.57;;;3.90;;
15667;SDS011;7934;48.710;9.024;2024-01-06T02:39:28;6.50;;;3.97;;
15667;SDS011;7934;48.710;9.024;2024-01-06T02:41:55;6.33;;;4.20;;
15667;SDS011;7934;48.710;9.024;2024-01-06T02:44:22;7.60;;;4.60;;
15667;SDS011;7934;48.710;9.024;2024-01-06T02:46:49;10.73;;;4.20;;
15667;SDS011;7934;48.710;9.024;2024-01-06T02:49:17;12.97;;;4.40;;
15667;SDS011;7934;48.710;9.024;2024-01-06T02:51:44;7.73;;;4.53;;
15667;SDS011;7934;48.710;9.024;2024-01-06T02:54:11;7.23;;;4.67;;
15667;SDS011;7934;48.710;9.024;2024-01-06T02:56:40;7.47;;;4.80;;
15667;SDS011;7934;48.710;9.024;2024-01-06T02:59:07;10.53;;;4.70;;
15667;SDS011;7934;48.710;9.024;2024-01-06T03:01:48;6.40;;;4.57;;
15667;SDS011;7934;48.710;9.024;2024-01-06T03:04:15;16.00;;;5.50;;
15667;SDS011;7934;48.710;9.024;2024-01-06T03:06:42;11.60;;;5.00;;
15667;SDS011;7934;48.710;9.024;2024-01-06T03:09:11;7.80;;;4.97;;
15667;SDS011;7934;48.710;9.024;2024-01-06T03:11:39;9.27;;;4.63;;
15667;SDS011;7934;48.710;9.024;2024-01-06T03:14:06;6.20;;;4.70;;
15667;SDS011;7934;48.710;9.024;2024-01-06T03:16:34;4.47;;;3.93;;
15667;SDS011;7934;48.710;9.024;2024-01-06T03:19:01;12.70;;;4.97;;
15667;SDS011;7934;48.710;9.024;2024-01-06T03:21:28;4.87;;;4.30;;
15667;SDS011;7934;48.710;9.024;2024-01-06T03:23:55;12.30;;;4.73;;
15667;SDS011;7934;48.710;9.024;2024-01-06T03:26:22;6.77;;;4.80;;
15667;SDS011;7934;48.710;9.024;2024-01-06T03:28:51;6.47;;;4.63;;
15667;SDS011;7934;48.710;9.024;2024-01-06T03:31:18;8.63;;;4.53;;
15667;SDS011;7934;48.710;9.024;2024-01-06T03:33:47;5.90;;;4.90;;
15667;SDS011;7934;48.710;9.024;2024-01-06T03:36:14;9.27;;;4.93;;
15667;SDS011;7934;48.710;9.024;2024-01-06T03:38:42;8.17;;;5.20;;
15667;SDS011;7934;48.710;9.024;2024-01-06T03:41:09;7.97;;;5.20;;
15667;SDS011;7934;48.710;9.024;2024-01-06T03:43:36;12.80;;;5.10;;
15667;SDS011;7934;48.710;9.024;2024-01-06T03:46:04;8.33;;;4.60;;
15667;SDS011;7934;48.710;9.024;2024-01-06T03:48:32;10.43;;;4.00;;
15667;SDS011;7934;48.710;9.024;2024-01-06T03:50:59;7.07;;;4.53;;
15667;SDS011;7934;48.710;9.024;2024-01-06T03:53:26;7.07;;;4.17;;
15667;SDS011;7934;48.710;9.024;2024-01-06T03:55:53;6.33;;;3.90;;
15667;SDS011;7934;48.710;9.024;2024-01-06T03:58:21;12.50;;;3.90;;
15667;SDS011;7934;48.710;9.024;2024-01-06T04:00:48;6.07;;;3.97;;
15667;SDS011;7934;48.710;9.024;2024-01-06T04:03:16;6.43;;;3.60;;
15667;SDS011;7934;48.710;9.024;2024-01-06T04:05:44;5.77;;;3.43;;
15667;SDS011;7934;48.710;9.024;2024-01-06T04:08:11;7.53;;;3.60;;
15667;SDS011;7934;48.710;9.024;2024-01-06T04:10:38;10.80;;;3.27;;
15667;SDS011;7934;48.710;9.024;2024-01-06T04:13:06;11.30;;;3.43;;
15667;SDS011;7934;48.710;9.024;2024-01-06T04:15:33;8.67;;;3.70;;
15667;SDS011;7934;48.710;9.024;2024-01-06T04:18:01;6.47;;;3.60;;
15667;SDS011;7934;48.710;9.024;2024-01-06T04:20:30;7.57;;;3.70;;
15667;SDS011;7934;48.710;9.024;2024-01-06T04:22:57;6.03;;;3.37;;
15667;SDS011;7934;48.710;9.024;2024-01-06T04:25:24;4.67;;;2.80;;
15667;SDS011;7934;48.710;9.024;2024-01-06T04:27:51;6.33;;;3.10;;
15667;SDS011;7934;48.710;9.024;2024-01-06T04:30:18;7.57;;;3.57;;
15667;SDS011;7934;48.710;9.024;2024-01-06T04:32:45;6.37;;;2.80;;
15667;SDS011;7934;48.710;9.024;2024-01-06T04:35:14;6.53;;;2.80;;
15667;SDS011;7934;48.710;9.024;2024-01-06T04:37:42;3.50;;;2.93;;
15667;SDS011;7934;48.710;9.024;2024-01-06T04:40:10;6.23;;;3.17;;
15667;SDS011;7934;48.710;9.024;2024-01-06T04:42:37;5.77;;;3.33;;
15667;SDS011;7934;48.710;9.024;2024-01-06T04:45:05;7.13;;;2.83;;
15667;SDS011;7934;48.710;9.024;2024-01-06T04:47:33;7.87;;;2.97;;
15667;SDS011;7934;48.710;9.024;2024-01-06T04:50:00;3.07;;;2.60;;
15667;SDS011;7934;48.710;9.024;2024-01-06T04:52:27;6.10;;;2.60;;
15667;SDS011;7934;48.710;9.024;2024-01-06T04:54:56;3.20;;;2.83;;
15667;SDS011;7934;48.710;9.024;2024-01-06T04:57:24;6.00;;;2.87;;
15667;SDS011;7934;48.710;9.024;2024-01-06T04:59:51;5.90;;;3.10;;
15667;SDS011;7934;48.710;9.024;2024-01-06T05:02:18;6.30;;;2.93;;
15667;SDS011;7934;48.710;9.024;2024-01-06T05:04:45;9.57;;;5.27;;
15667;SDS011;7934;48.710;9.024;2024-01-06T05:07:12;11.67;;;6.07;;
15667;SDS011;7934;48.710;9.024;2024-01-06T05:09:39;10.23;;;4.40;;
15667;SDS011;7934;48.710;9.024;2024-01-06T05:12:08;7.33;;;4.90;;
15667;SDS011;7934;48.710;9.024;2024-01-06T05:14:38;9.37;;;4.17;;
15667;SDS011;7934;48.710;9.024;2024-01-06T05:17:05;6.23;;;3.80;;
15667;SDS011;7934;48.710;9.024;2024-01-06T05:19:35;6.63;;;3.77;;
15667;SDS011;7934;48.710;9.024;2024-01-06T05:22:03;6.83;;;3.43;;
15667;SDS011;7934;48.710;9.024;2024-01-06T05:24:30;7.23;;;3.30;;
15667;SDS011;7934;48.710;9.024;2024-01-06T05:26:57;3.30;;;3.00;;
15667;SDS011;7934;48.710;9.024;2024-01-06T05:29:26;4.43;;;2.70;;
15667;SDS011;7934;48.710;9.024;2024-01-06T05:31:53;7.80;;;3.00;;
15667;SDS011;7934;48.710;9.024;2024-01-06T05:34:20;5.20;;;2.70;;
15667;SDS011;7934;48.710;9.024;2024-01-06T05:36:47;9.10;;;3.47;;
15667;SDS011;7934;48.710;9.024;2024-01-06T05:39:14;3.83;;;2.50;;
15667;SDS011;7934;48.710;9.024;2024-01-06T05:41:41;5.80;;;2.13;;
15667;SDS011;7934;48.710;9.024;2024-01-06T05:44:08;9.83;;;3.07;;
15667;SDS011;7934;48.710;9.024;2024-01-06T05:46:37;7.10;;;2.90;;
15667;SDS011;7934;48.710;9.024;2024-01-06T05:49:04;6.00;;;3.00;;
15667;SDS011;7934;48.710;9.024;2024-01-06T05:51:31;4.57;;;2.47;;
15667;SDS011;7934;48.710;9.024;2024-01-06T05:53:58;7.27;;;2.77;;
15667;SDS011;7934;48.710;9.024;2024-01-06T05:56:26;5.03;;;2.53;;
15667;SDS011;7934;48.710;9.024;2024-01-06T05:58:54;6.30;;;2.87;;
15667;SDS011;7934;48.710;9.024;2024-01-06T06:01:21;2.43;;;2.10;;
15667;SDS011;7934;48.710;9.024;2024-01-06T06:03:49;3.57;;;2.23;;
15667;SDS011;7934;48.710;9.024;2024-01-06T06:06:16;6.90;;;2.50;;
15667;SDS011;7934;48.710;9.024;2024-01-06T06:08:45;2.43;;;2.30;;
15667;SDS011;7934;48.710;9.024;2024-01-06T06:11:13;4.60;;;2.30;;
15667;SDS011;7934;48.710;9.024;2024-01-06T06:13:41;6.80;;;2.57;;
15667;SDS011;7934;48.710;9.024;2024-01-06T06:16:09;6.93;;;2.57;;
15667;SDS011;7934;48.710;9.024;2024-01-06T06:18:37;3.20;;;2.37;;
15667;SDS011;7934;48.710;9.024;2024-01-06T06:21:06;4.97;;;2.47;;
15667;SDS011;7934;48.710;9.024;2024-01-06T06:23:33;3.63;;;2.70;;
15667;SDS011;7934;48.710;9.024;2024-01-06T06:26:03;2.47;;;2.20;;
15667;SDS011;7934;48.710;9.024;2024-01-06T06:28:30;3.07;;;1.90;;
15667;SDS011;7934;48.710;9.024;2024-01-06T06:30:57;6.23;;;2.60;;
15667;SDS011;7934;48.710;9.024;2024-01-06T06:33:24;4.63;;;2.30;;
15667;SDS011;7934;48.710;9.024;2024-01-06T06:35:51;2.50;;;2.10;;
15667;SDS011;7934;48.710;9.024;2024-01-06T06:38:20;5.73;;;2.50;;
15667;SDS011;7934;48.710;9.024;2024-01-06T06:40:47;2.93;;;2.67;;
15667;SDS011;7934;48.710;9.024;2024-01-06T06:43:14;4.53;;;2.00;;
15667;SDS011;7934;48.710;9.024;2024-01-06T06:45:41;6.40;;;2.30;;
15667;SDS011;7934;48.710;9.024;2024-01-06T06:48:09;3.00;;;1.90;;
15667;SDS011;7934;48.710;9.024;2024-01-06T06:50:36;1.90;;;1.80;;
15667;SDS011;7934;48.710;9.024;2024-01-06T06:53:03;3.30;;;1.90;;
15667;SDS011;7934;48.710;9.024;2024-01-06T06:55:31;4.47;;;2.00;;
15667;SDS011;7934;48.710;9.024;2024-01-06T06:57:59;7.70;;;2.40;;
15667;SDS011;7934;48.710;9.024;2024-01-06T07:00:26;2.10;;;1.90;;
15667;SDS011;7934;48.710;9.024;2024-01-06T07:02:53;2.50;;;1.60;;
15667;SDS011;7934;48.710;9.024;2024-01-06T07:05:20;4.90;;;2.10;;
15667;SDS011;7934;48.710;9.024;2024-01-06T07:07:47;3.13;;;2.10;;
15667;SDS011;7934;48.710;9.024;2024-01-06T07:10:15;3.50;;;2.30;;
15667;SDS011;7934;48.710;9.024;2024-01-06T07:12:44;4.23;;;2.23;;
15667;SDS011;7934;48.710;9.024;2024-01-06T07:15:11;2.17;;;2.07;;
15667;SDS011;7934;48.710;9.024;2024-01-06T07:17:38;2.63;;;2.43;;
15667;SDS011;7934;48.710;9.024;2024-01-06T07:20:05;2.50;;;2.27;;
15667;SDS011;7934;48.710;9.024;2024-01-06T07:22:33;2.40;;;2.20;;
15667;SDS011;7934;48.710;9.024;2024-01-06T07:25:01;2.40;;;2.17;;
15667;SDS011;7934;48.710;9.024;2024-01-06T07:27:28;4.83;;;2.70;;
15667;SDS011;7934;48.710;9.024;2024-01-06T07:29:56;5.17;;;2.70;;
15667;SDS011;7934;48.710;9.024;2024-01-06T07:32:24;3.40;;;2.20;;
15667;SDS011;7934;48.710;9.024;2024-01-06T07:34:51;3.43;;;2.00;;
15667;SDS011;7934;48.710;9.024;2024-01-06T07:37:18;1.67;;;1.60;;
15667;SDS011;7934;48.710;9.024;2024-01-06T07:39:45;1.80;;;1.70;;
15667;SDS011;7934;48.710;9.024;2024-01-06T07:42:11;3.73;;;1.97;;
15667;SDS011;7934;48.710;9.024;2024-01-06T07:44:38;2.33;;;2.10;;
15667;SDS011;7934;48.710;9.024;2024-01-06T07:47:07;2.60;;;1.77;;
15667;SDS011;7934;48.710;9.024;2024-01-06T07:49:34;2.63;;;2.10;;
15667;SDS011;7934;48.710;9.024;2024-01-06T07:52:01;2.57;;;2.20;;
15667;SDS011;7934;48.710;9.024;2024-01-06T07:54:29;2.53;;;1.93;;
15667;SDS011;7934;48.710;9.024;2024-01-06T07:56:56;2.13;;;1.87;;
15667;SDS011;7934;48.710;9.024;2024-01-06T07:59:24;2.40;;;2.20;;
15667;SDS011;7934;48.710;9.024;2024-01-06T08:01:51;2.20;;;2.03;;
15667;SDS011;7934;48.710;9.024;2024-01-06T08:04:19;4.30;;;2.00;;
15667;SDS011;7934;48.710;9.024;2024-01-06T08:06:47;2.40;;;2.20;;
15667;SDS011;7934;48.710;9.024;2024-01-06T08:09:14;2.27;;;2.17;;
15667;SDS011;7934;48.710;9.024;2024-01-06T08:11:41;3.43;;;2.07;;
15667;SDS011;7934;48.710;9.024;2024-01-06T08:14:11;2.63;;;2.03;;
15667;SDS011;7934;48.710;9.024;2024-01-06T08:16:38;2.43;;;2.10;;
15667;SDS011;7934;48.710;9.024;2024-01-06T08:19:05;5.87;;;2.53;;
15667;SDS011;7934;48.710;9.024;2024-01-06T08:21:34;2.47;;;2.27;;
15667;SDS011;7934;48.710;9.024;2024-01-06T08:24:01;5.03;;;1.93;;
15667;SDS011;7934;48.710;9.024;2024-01-06T08:26:28;2.23;;;2.03;;
15667;SDS011;7934;48.710;9.024;2024-01-06T08:28:55;2.20;;;1.67;;
15667;SDS011;7934;48.710;9.024;2024-01-06T08:31:22;4.60;;;1.93;;
15667;SDS011;7934;48.710;9.024;2024-01-06T08:33:49;1.50;;;1.50;;
15667;SDS011;7934;48.710;9.024;2024-01-06T08:36:17;2.43;;;1.73;;
15667;SDS011;7934;48.710;9.024;2024-01-06T08:38:45;3.90;;;2.03;;
15667;SDS011;7934;48.710;9.024;2024-01-06T08:41:12;1.50;;;1.40;;
15667;SDS011;7934;48.710;9.024;2024-01-06T08:43:40;1.70;;;1.60;;
15667;SDS011;7934;48.710;9.024;2024-01-06T08:46:07;1.67;;;1.57;;
15667;SDS011;7934;48.710;9.024;2024-01-06T08:48:34;4.50;;;1.60;;
15667;SDS011;7934;48.710;9.024;2024-01-06T08:51:01;3.13;;;1.93;;
15667;SDS011;7934;48.710;9.024;2024-01-06T08:53:29;2.50;;;1.70;;
15667;SDS011;7934;48.710;9.024;2024-01-06T08:55:57;3.97;;;1.80;;
15667;SDS011;7934;48.710;9.024;2024-01-06T08:58:25;3.67;;;1.90;;
15667;SDS011;7934;48.710;9.024;2024-01-06T09:00:52;2.10;;;2.00;;
15667;SDS011;7934;48.710;9.024;2024-01-06T09:03:19;1.67;;;1.57;;
15667;SDS011;7934;48.710;9.024;2024-01-06T09:05:50;2.00;;;1.90;;
15667;SDS011;7934;48.710;9.024;2024-01-06T09:08:17;1.80;;;1.70;;
15667;SDS011;7934;48.710;9.024;2024-01-06T09:10:45;1.33;;;1.33;;
15667;SDS011;7934;48.710;9.024;2024-01-06T09:13:14;1.40;;;1.40;;
15667;SDS011;7934;48.710;9.024;2024-01-06T09:15:41;1.47;;;1.37;;
15667;SDS011;7934;48.710;9.024;2024-01-06T09:18:10;1.70;;;1.60;;
15667;SDS011;7934;48.710;9.024;2024-01-06T09:20:38;1.40;;;1.40;;
15667;SDS011;7934;48.710;9.024;2024-01-06T09:23:06;3.77;;;1.70;;
15667;SDS011;7934;48.710;9.024;2024-01-06T09:25:35;2.30;;;1.80;;
15667;SDS011;7934;48.710;9.024;2024-01-06T09:28:02;2.10;;;2.00;;
15667;SDS011;7934;48.710;9.024;2024-01-06T09:30:31;1.95;;;1.85;;
15667;SDS011;7934;48.710;9.024;2024-01-06T09:33:02;2.47;;;1.80;;
15667;SDS011;7934;48.710;9.024;2024-01-06T09:35:29;1.70;;;1.60;;
15667;SDS011;7934;48.710;9.024;2024-01-06T09:37:57;1.87;;;1.80;;
15667;SDS011;7934;48.710;9.024;2024-01-06T09:40:25;1.40;;;1.40;;
15667;SDS011;7934;48.710;9.024;2024-01-06T09:42:52;2.50;;;1.57;;
15667;SDS011;7934;48.710;9.024;2024-01-06T09:45:20;2.13;;;1.60;;
15667;SDS011;7934;48.710;9.024;2024-01-06T09:47:50;6.93;;;5.37;;
15667;SDS011;7934;48.710;9.024;2024-01-06T09:50:18;2.07;;;1.60;;
15667;SDS011;7934;48.710;9.024;2024-01-06T09:52:46;1.97;;;1.73;;
15667;SDS011;7934;48.710;9.024;2024-01-06T09:55:19;2.53;;;2.33;;
15667;SDS011;7934;48.710;9.024;2024-01-06T09:57:48;1.60;;;1.50;;
15667;SDS011;7934;48.710;9.024;2024-01-06T10:00:15;2.07;;;1.50;;
15667;SDS011;7934;48.710;9.024;2024-01-06T10:02:43;1.60;;;1.50;;
15667;SDS011;7934;48.710;9.024;2024-01-06T10:05:13;1.90;;;1.63;;
15667;SDS011;7934;48.710;9.024;2024-01-06T10:07:41;1.53;;;1.43;;
15667;SDS011;7934;48.710;9.024;2024-01-06T10:10:09;1.13;;;1.13;;
15667;SDS011;7934;48.710;9.024;2024-01-06T10:12:39;1.27;;;1.07;;
15667;SDS011;7934;48.710;9.024;2024-01-06T10:15:06;1.57;;;1.47;;
15667;SDS011;7934;48.710;9.024;2024-01-06T10:17:36;1.63;;;1.40;;
15667;SDS011;7934;48.710;9.024;2024-01-06T10:20:06;1.50;;;1.40;;
15667;SDS011;7934;48.710;9.024;2024-01-06T10:22:35;1.67;;;1.67;;
15667;SDS011;7934;48.710;9.024;2024-01-06T10:25:04;1.33;;;1.17;;
15667;SDS011;7934;48.710;9.024;2024-01-06T10:27:33;1.40;;;1.20;;
15667;SDS011;7934;48.710;9.024;2024-01-06T10:30:00;1.00;;;1.00;;
15667;SDS011;7934;48.710;9.024;2024-01-06T10:32:30;0.90;;;0.90;;
15667;SDS011;7934;48.710;9.024;2024-01-06T10:34:57;1.13;;;1.13;;
15667;SDS011;7934;48.710;9.024;2024-01-06T10:37:25;1.13;;;1.00;;
15667;SDS011;7934;48.710;9.024;2024-01-06T10:40:06;2.00;;;0.93;;
15667;SDS011;7934;48.710;9.024;2024-01-06T10:42:33;0.83;;;0.83;;
15667;SDS011;7934;48.710;9.024;2024-01-06T10:45:00;0.90;;;0.90;;
15667;SDS011;7934;48.710;9.024;2024-01-06T10:47:27;0.87;;;0.87;;
15667;SDS011;7934;48.710;9.024;2024-01-06T10:49:57;0.70;;;0.70;;
15667;SDS011;7934;48.710;9.024;2024-01-06T10:52:27;0.77;;;0.77;;
15667;SDS011;7934;48.710;9.024;2024-01-06T10:54:55;0.80;;;0.80;;
15667;SDS011;7934;48.710;9.024;2024-01-06T10:57:24;0.70;;;0.70;;
15667;SDS011;7934;48.710;9.024;2024-01-06T10:59:53;0.90;;;0.90;;
15667;SDS011;7934;48.710;9.024;2024-01-06T11:02:20;1.00;;;1.00;;
15667;SDS011;7934;48.710;9.024;2024-01-06T11:04:48;1.00;;;0.93;;
15667;SDS011;7934;48.710;9.024;2024-01-06T11:07:18;3.30;;;0.90;;
15667;SDS011;7934;48.710;9.024;2024-01-06T11:09:46;0.83;;;0.83;;
15667;SDS011;7934;48.710;9.024;2024-01-06T11:12:17;0.77;;;0.77;;
15667;SDS011;7934;48.710;9.024;2024-01-06T11:14:46;0.93;;;0.90;;
15667;SDS011;7934;48.710;9.024;2024-01-06T11:17:15;1.17;;;1.07;;
15667;SDS011;7934;48.710;9.024;2024-01-06T11:20:04;1.00;;;1.00;;
15667;SDS011;7934;48.710;9.024;2024-01-06T11:22:33;1.00;;;1.00;;
15667;SDS011;7934;48.710;9.024;2024-01-06T11:25:05;1.30;;;1.30;;
15667;SDS011;7934;48.710;9.024;2024-01-06T11:27:33;1.23;;;1.23;;
15667;SDS011;7934;48.710;9.024;2024-01-06T11:30:03;1.57;;;1.47;;
15667;SDS011;7934;48.710;9.024;2024-01-06T11:32:31;1.00;;;1.00;;
15667;SDS011;7934;48.710;9.024;2024-01-06T11:35:07;0.70;;;0.70;;
15667;SDS011;7934;48.710;9.024;2024-01-06T11:37:35;0.70;;;0.70;;
15667;SDS011;7934;48.710;9.024;2024-01-06T11:40:03;1.00;;;1.00;;
15667;SDS011;7934;48.710;9.024;2024-01-06T11:42:33;0.80;;;0.80;;
15667;SDS011;7934;48.710;9.024;2024-01-06T11:45:03;0.97;;;0.97;;
15667;SDS011;7934;48.710;9.024;2024-01-06T11:47:31;0.70;;;0.60;;
15667;SDS011;7934;48.710;9.024;2024-01-06T11:49:59;0.80;;;0.80;;
15667;SDS011;7934;48.710;9.024;2024-01-06T11:52:29;1.27;;;0.90;;
15667;SDS011;7934;48.710;9.024;2024-01-06T11:54:56;0.80;;;0.80;;
15667;SDS011;7934;48.710;9.024;2024-01-06T11:57:24;0.60;;;0.60;;
15667;SDS011;7934;48.710;9.024;2024-01-06T11:59:52;0.60;;;0.60;;
15667;SDS011;7934;48.710;9.024;2024-01-06T12:02:21;0.77;;;0.77;;
15667;SDS011;7934;48.710;9.024;2024-01-06T12:04:48;0.80;;;0.80;;
15667;SDS011;7934;48.710;9.024;2024-01-06T12:07:17;0.90;;;0.90;;
15667;SDS011;7934;48.710;9.024;2024-01-06T12:09:45;1.13;;;0.70;;
15667;SDS011;7934;48.710;9.024;2024-01-06T12:12:14;0.77;;;0.77;;
15667;SDS011;7934;48.710;9.024;2024-01-06T12:14:43;0.77;;;0.77;;
15667;SDS011;7934;48.710;9.024;2024-01-06T12:17:14;1.03;;;0.90;;
15667;SDS011;7934;48.710;9.024;2024-01-06T12:19:44;3.00;;;0.97;;
15667;SDS011;7934;48.710;9.024;2024-01-06T12:22:13;2.50;;;1.07;;
15667;SDS011;7934;48.710;9.024;2024-01-06T12:24:41;1.00;;;1.00;;
15667;SDS011;7934;48.710;9.024;2024-01-06T12:27:09;1.53;;;0.97;;
15667;SDS011;7934;48.710;9.024;2024-01-06T12:29:37;0.90;;;0.90;;
15667;SDS011;7934;48.710;9.024;2024-01-06T12:32:05;1.00;;;1.00;;
15667;SDS011;7934;48.710;9.024;2024-01-06T12:34:34;1.00;;;1.00;;
15667;SDS011;7934;48.710;9.024;2024-01-06T12:37:05;0.93;;;0.93;;
15667;SDS011;7934;48.710;9.024;2024-01-06T12:39:33;1.40;;;1.10;;
15667;SDS011;7934;48.710;9.024;2024-01-06T12:42:01;1.10;;;1.10;;
15667;SDS011;7934;48.710;9.024;2024-01-06T12:44:28;1.13;;;1.13;;
15667;SDS011;7934;48.710;9.024;2024-01-06T12:46:57;2.30;;;1.30;;
15667;SDS011;7934;48.710;9.024;2024-01-06T12:49:24;1.20;;;1.20;;
15667;SDS011;7934;48.710;9.024;2024-01-06T12:57:41;1.80;;;1.70;;
15667;SDS011;7934;48.710;9.024;2024-01-06T13:00:12;2.07;;;1.27;;
15667;SDS011;7934;48.710;9.024;2024-01-06T13:02:41;1.73;;;1.63;;
15667;SDS011;7934;48.710;9.024;2024-01-06T13:05:10;1.77;;;1.67;;
15667;SDS011;7934;48.710;9.024;2024-01-06T13:07:38;1.50;;;1.50;;
15667;SDS011;7934;48.710;9.024;2024-01-06T13:10:07;1.40;;;1.40;;
15667;SDS011;7934;48.710;9.024;2024-01-06T13:12:36;2.63;;;1.50;;
15667;SDS011;7934;48.710;9.024;2024-01-06T13:15:04;1.90;;;1.80;;
15667;SDS011;7934;48.710;9.024;2024-01-06T13:17:31;1.47;;;1.47;;
15667;SDS011;7934;48.710;9.024;2024-01-06T13:19:59;1.97;;;1.50;;
15667;SDS011;7934;48.710;9.024;2024-01-06T13:22:26;2.10;;;2.00;;
15667;SDS011;7934;48.710;9.024;2024-01-06T13:24:53;2.50;;;2.40;;
15667;SDS011;7934;48.710;9.024;2024-01-06T13:27:20;2.38;;;2.28;;
15667;SDS011;7934;48.710;9.024;2024-01-06T13:29:49;2.00;;;1.83;;
15667;SDS011;7934;48.710;9.024;2024-01-06T13:32:16;2.00;;;1.93;;
15667;SDS011;7934;48.710;9.024;2024-01-06T13:34:44;2.50;;;2.40;;
15667;SDS011;7934;48.710;9.024;2024-01-06T13:37:11;2.50;;;2.30;;
15667;SDS011;7934;48.710;9.024;2024-01-06T13:39:38;1.70;;;1.70;;
15667;SDS011;7934;48.710;9.024;2024-01-06T13:42:05;1.87;;;1.87;;
15667;SDS011;7934;48.710;9.024;2024-01-06T13:44:33;2.40;;;2.30;;
15667;SDS011;7934;48.710;9.024;2024-01-06T13:47:02;2.30;;;2.10;;
15667;SDS011;7934;48.710;9.024;2024-01-06T13:49:29;3.10;;;2.67;;
15667;SDS011;7934;48.710;9.024;2024-01-06T13:51:57;3.60;;;2.60;;
15667;SDS011;7934;48.710;9.024;2024-01-06T13:54:24;2.73;;;2.53;;
15667;SDS011;7934;48.710;9.024;2024-01-06T13:56:51;2.67;;;2.57;;
15667;SDS011;7934;48.710;9.024;2024-01-06T13:59:18;3.07;;;2.87;;
15667;SDS011;7934;48.710;9.024;2024-01-06T14:01:46;2.50;;;2.40;;
15667;SDS011;7934;48.710;9.024;2024-01-06T14:04:15;2.63;;;2.53;;
15667;SDS011;7934;48.710;9.024;2024-01-06T14:06:42;2.47;;;2.37;;
15667;SDS011;7934;48.710;9.024;2024-01-06T14:09:09;3.67;;;2.20;;
15667;SDS011;7934;48.710;9.024;2024-01-06T14:11:37;2.00;;;1.90;;
15667;SDS011;7934;48.710;9.024;2024-01-06T14:14:04;2.10;;;2.00;;
15667;SDS011;7934;48.710;9.024;2024-01-06T14:16:31;2.33;;;2.23;;
15667;SDS011;7934;48.710;9.024;2024-01-06T14:18:59;1.63;;;1.60;;
15667;SDS011;7934;48.710;9.024;2024-01-06T14:21:29;1.87;;;1.80;;
15667;SDS011;7934;48.710;9.024;2024-01-06T14:23:57;2.10;;;2.00;;
15667;SDS011;7934;48.710;9.024;2024-01-06T14:26:24;2.80;;;2.60;;
15667;SDS011;7934;48.710;9.024;2024-01-06T14:28:53;2.23;;;2.13;;
15667;SDS011;7934;48.710;9.024;2024-01-06T14:31:20;2.33;;;2.23;;
15667;SDS011;7934;48.710;9.024;2024-01-06T14:33:49;3.60;;;2.57;;
15667;SDS011;7934;48.710;9.024;2024-01-06T14:36:18;2.47;;;2.37;;
15667;SDS011;7934;48.710;9.024;2024-01-06T14:38:50;2.50;;;2.40;;
15667;SDS011;7934;48.710;9.024;2024-01-06T14:41:19;2.40;;;2.30;;
15667;SDS011;7934;48.710;9.024;2024-01-06T14:43:48;4.17;;;2.67;;
15667;SDS011;7934;48.710;9.024;2024-01-06T14:46:16;3.50;;;3.20;;
15667;SDS011;7934;48.710;9.024;2024-01-06T14:48:44;2.87;;;2.67;;
15667;SDS011;7934;48.710;9.024;2024-01-06T14:51:13;3.20;;;3.00;;
15667;SDS011;7934;48.710;9.024;2024-01-06T14:53:42;3.00;;;2.80;;
15667;SDS011;7934;48.710;9.024;2024-01-06T14:56:11;3.20;;;3.00;;
15667;SDS011;7934;48.710;9.024;2024-01-06T14:58:40;3.47;;;3.17;;
15667;SDS011;7934;48.710;9.024;2024-01-06T15:01:10;3.80;;;3.43;;
15667;SDS011;7934;48.710;9.024;2024-01-06T15:03:53;3.87;;;3.57;;
15667;SDS011;7934;48.710;9.024;2024-01-06T15:06:20;3.53;;;3.33;;
15667;SDS011;7934;48.710;9.024;2024-01-06T15:08:47;4.30;;;4.00;;
15667;SDS011;7934;48.710;9.024;2024-01-06T15:11:16;3.60;;;3.37;;